Decoded Metar for LFLX (CHATEAUROUX in FRANCE) (IATA:CHR) | Meteo·Mobile Aviation Weather
aviador You're here:

LFLX Decoded Metar

CHATEAUROUX in FRANCE
Report Time2019-02-21 23:30:00
UTC Time2019-02-21 23:40:51
Flight Rules vfr VFR
Wind050° at 01 kt
W.Decomp.*RWY 03: 0.9 kt HW 0.3 kt RCW
W.Rank050° ranks 14
Current wind is below 050° avg. (6.0)
Visibility9999 m
Phenomena:N/A
Clouds:N/A
Expected CloudBase > 800 ft AGL from Temp-Dew spread
CeilingNone
Temp04°C (ISA -10)
Dew Point02°C (87% RH)
AAT2.0°C
QNH1032 hPa
Density Alt-1,237 ft
Elevation515 ft
Report Wrong Elevation
Raw Report
METAR LFLX 212330Z AUTO 05001KT CAVOK 04/02 Q1032 NOSIG=

Extra information for LFLX:More info

Metar Taf Metar & Taf Last 4 Metars F.Rules Stats Wind Profile Meteogram Temp Stats Airport Information Weather charts Add Link Nearby VenuesMetar ALERT Operation Metar Decoded Social comments